Saguaro National Park, AZ

9:28 PM MST on September 01, 2015 (GMT -0700)
Base of the Black Mountain | | Change Station
CLOSE
Current Station
Personal Weather Station
Location: Tucson, AZ
Elevation: 2369 ft
Nearby Weather Stations

Elev 2369 ft 32.22 °N, 111.00 °W | Updated 17 seconds ago

Mostly Cloudy
Mostly Cloudy
83.3 °F
Feels Like 86 °F
N
0.0
Wind Variable Wind from WSW
Gusts 0.0 mph

Today
High -- | Low -- °F
--% Chance of Precip.
Yesterday
High -- | Low -- °F
Precip. -- in
5:58 AM 6:48 PM
Waning Gibbous, 84% visible
Pressure 29.88 in
Visibility 10.0 miles
Clouds Scattered Clouds 9500 ft
Heat Index 86 °F
Dew Point 68 °F
Humidity 60%
Rainfall 0.60 in
Snow Depth Not available.
UV 0.0 out of 12
Pollen 4.90 out of 12
Air Quality Not available.
Flu Activity Not available.
METAR KDMA 020358Z 19007KT 10SM SCT095 28/20 A3001 RMK AO2A SLP118 T02780199 $
Pressure 29.88 in
Visibility 10.0 miles
Clouds Scattered Clouds 9500 ft
Heat Index 86 °F
Dew Point 68 °F
Humidity 60%
Rainfall 0.60 in
Snow Depth Not available.
UV 0.0 out of 12
Pollen 4.90 out of 12
Air Quality Not available.
Flu Activity Not available.
METAR KDMA 020358Z 19007KT 10SM SCT095 28/20 A3001 RMK AO2A SLP118 T02780199 $
Nowcast | as of 9:17 PM MST on September 1, 2015

Isolated showers...perhaps with a few embedded lightning strikes...will continue to impact portions of east central Pima and southeast Pinal counties through 1115 PM. These showers may produce a few hundredths to one tenth of an inch of rain and a brief wind gust to 35 mph as they move towards the northwest at 5 to 10 mph. Some additional light showers may also linger across portions of northeastern Pinal County.

×

10-Day Weather Forecast

×

Almanac

Astronomy

Sep. 01, 2015 Rise Set
Actual Time
Civil Twilight
Nautical Twilight
Astronomical Twilight
Moon
Length of Visible Light
Length of Day
Tomorrow will be .
, % of the Moon is Illuminated

Today's Extremes

State Highs State Lows

Community

WunderPhotos

Upload Photos

1,851,695 photos uploaded!

WunderBlogs® & News

Nearby

Air Quality

  Air Quality AQ Index Pollutant
Not available.

Snow Depth

Station Depth Elevation

Earthquake Activity

City Distance Mag. Time & Date
Minimum magnitude displayed is 2.5.

Coastal Water Temperatures

Place Temperature

Stations

Nearby Weather Stations

Station Location Temp. Windchill Dew Point Humidity Wind Precip. Elev Updated Type